createdAt,value
2018-09-26T00:03:06.257Z,98764.86
2018-09-26T00:08:01.067Z,98772.25
2018-09-26T00:12:55.878Z,98770.83
2018-09-26T00:17:50.734Z,98768.29
2018-09-26T00:22:45.541Z,98762.72
2018-09-26T00:27:40.345Z,98757.45
2018-09-26T00:32:35.141Z,98752.09
2018-09-26T00:37:29.887Z,98751.56
2018-09-26T00:42:24.699Z,98761.61
2018-09-26T00:47:19.461Z,98756.22
2018-09-26T00:52:14.328Z,98746.31
2018-09-26T00:57:09.153Z,98757.05
2018-09-26T01:02:03.923Z,98756.77
2018-09-26T01:06:58.733Z,98747.30
2018-09-26T01:11:53.544Z,98751.15
2018-09-26T01:16:48.368Z,98747.69
2018-09-26T01:21:43.172Z,98748.11
2018-09-26T01:26:37.930Z,98733.28
2018-09-26T01:31:32.723Z,98720.02
2018-09-26T01:36:27.538Z,98707.20
2018-09-26T01:41:22.329Z,98683.48
2018-09-26T01:46:17.089Z,98685.73
2018-09-26T01:51:11.861Z,98684.83
2018-09-26T01:56:06.718Z,98686.88
2018-09-26T02:01:01.496Z,98663.02
2018-09-26T02:05:56.290Z,98654.88
2018-09-26T02:10:51.077Z,98661.17
2018-09-26T02:15:45.904Z,98652.98
2018-09-26T02:20:40.681Z,98650.19
2018-09-26T02:25:35.421Z,98652.30
2018-09-26T02:30:30.220Z,98658.39
2018-09-26T02:35:25.019Z,98647.95
2018-09-26T02:40:19.827Z,98654.88
2018-09-26T02:45:14.602Z,98660.55
2018-09-26T02:50:09.653Z,98666.22
2018-09-26T02:55:04.649Z,98661.28
2018-09-26T02:59:59.444Z,98657.44
2018-09-26T03:04:54.216Z,98659.67
2018-09-26T03:09:49.034Z,98654.84
2018-09-26T03:14:43.849Z,98665.64
2018-09-26T03:19:38.601Z,98677.17
2018-09-26T03:24:33.380Z,98667.29
2018-09-26T03:29:28.206Z,98666.23
2018-09-26T03:34:22.935Z,98670.08
2018-09-26T03:39:17.709Z,98682.65
2018-09-26T03:44:12.502Z,98686.98
2018-09-26T03:49:07.288Z,98686.34
2018-09-26T03:54:02.102Z,98692.72
2018-09-26T03:58:56.966Z,98694.48
2018-09-26T04:03:51.721Z,98697.54
2018-09-26T04:08:46.554Z,98704.23
2018-09-26T04:13:41.350Z,98707.33
2018-09-26T04:18:36.145Z,98700.12
2018-09-26T04:23:30.911Z,98701.94
2018-09-26T04:28:25.724Z,98696.91
2018-09-26T04:33:20.657Z,98695.94
2018-09-26T04:38:15.329Z,98705.91
2018-09-26T04:43:10.122Z,98704.75
2018-09-26T04:48:04.937Z,98698.39
2018-09-26T04:52:59.745Z,98701.17
2018-09-26T04:57:54.576Z,98691.72
2018-09-26T05:02:49.414Z,98710.61
2018-09-26T05:07:44.261Z,98711.34
2018-09-26T05:12:39.044Z,98706.05
2018-09-26T05:17:34.117Z,98702.02
2018-09-26T05:22:28.894Z,98722.42
2018-09-26T05:27:23.721Z,98726.34
2018-09-26T05:32:18.489Z,98730.19
2018-09-26T05:37:13.574Z,98729.39
2018-09-26T05:42:08.425Z,98722.72
2018-09-26T05:47:03.239Z,98736.62
2018-09-26T05:51:58.021Z,98737.26
2018-09-26T05:56:52.809Z,98749.95
2018-09-26T06:01:47.577Z,98761.84
2018-09-26T06:06:42.457Z,98777.19
2018-09-26T06:11:37.275Z,98774.34
2018-09-26T06:16:32.110Z,98782.70
2018-09-26T06:21:26.929Z,98788.38
2018-09-26T06:26:21.714Z,98789.72
2018-09-26T06:31:16.513Z,98784.76
2018-09-26T06:36:11.287Z,98794.42
2018-09-26T06:41:06.187Z,98799.59
2018-09-26T06:46:00.967Z,98814.44
2018-09-26T06:50:55.716Z,98813.16
2018-09-26T06:55:50.490Z,98817.81
2018-09-26T07:00:45.427Z,98825.73
2018-09-26T07:05:40.241Z,98828.88
2018-09-26T07:10:35.136Z,98825.47
2018-09-26T07:15:29.897Z,98831.83
2018-09-26T07:20:24.678Z,98844.11
2018-09-26T07:25:19.942Z,98843.50
2018-09-26T07:30:14.757Z,98854.17
2018-09-26T07:35:09.618Z,98860.25
2018-09-26T07:40:04.581Z,98863.56
2018-09-26T07:44:59.415Z,98875.73
2018-09-26T07:49:54.178Z,98876.84
2018-09-26T07:54:48.956Z,98879.50
2018-09-26T07:59:43.745Z,98868.08
2018-09-26T08:04:38.530Z,98870.76
2018-09-26T08:09:33.355Z,98865.01
2018-09-26T08:14:28.152Z,98869.88
2018-09-26T08:19:22.964Z,98872.63
2018-09-26T08:24:17.785Z,98880.39
2018-09-26T08:29:12.560Z,98880.06
2018-09-26T08:34:07.503Z,98877.77
2018-09-26T08:39:02.396Z,98869.55
2018-09-26T08:43:57.243Z,98874.11
2018-09-26T08:48:51.967Z,98876.54
2018-09-26T08:53:47.101Z,98876.51
2018-09-26T08:58:41.835Z,98874.59
2018-09-26T09:03:36.627Z,98865.52
2018-09-26T09:08:31.447Z,98865.13
2018-09-26T09:13:26.230Z,98855.15
2018-09-26T09:18:21.036Z,98843.39
2018-09-26T09:23:15.797Z,98843.75
2018-09-26T09:28:10.578Z,98848.06
2018-09-26T09:33:05.393Z,98834.09
2018-09-26T09:38:00.220Z,98843.34
2018-09-26T09:42:55.014Z,98850.87
2018-09-26T09:47:49.789Z,98839.38
2018-09-26T09:52:44.605Z,98836.83
2018-09-26T09:57:39.442Z,98838.52
2018-09-26T10:02:34.406Z,98842.69
2018-09-26T10:07:29.146Z,98834.56
2018-09-26T10:12:24.056Z,98843.55
2018-09-26T10:17:18.797Z,98842.48
2018-09-26T10:22:13.527Z,98835.51
2018-09-26T10:27:08.286Z,98824.28
2018-09-26T10:32:02.989Z,98817.59
2018-09-26T10:36:57.726Z,98808.72
2018-09-26T10:41:52.434Z,98807.00
2018-09-26T10:46:47.202Z,98800.41
2018-09-26T10:51:42.450Z,98806.00
2018-09-26T10:56:37.315Z,98793.45
2018-09-26T11:01:31.988Z,98786.17
2018-09-26T11:06:26.829Z,98777.36
2018-09-26T11:11:21.538Z,98767.77
2018-09-26T11:16:16.310Z,98762.16
2018-09-26T11:21:11.041Z,98761.30
2018-09-26T11:26:05.956Z,98758.68
2018-09-26T11:31:00.696Z,98760.73
2018-09-26T11:35:55.453Z,98750.28
2018-09-26T11:40:50.224Z,98746.40
2018-09-26T11:45:44.948Z,98736.12
2018-09-26T11:50:39.729Z,98732.84
2018-09-26T11:55:34.478Z,98736.19
2018-09-26T12:00:29.230Z,98730.42
2018-09-26T12:05:24.035Z,98732.62
2018-09-26T12:10:18.802Z,98729.03
2018-09-26T12:15:13.509Z,98732.15
2018-09-26T12:20:08.371Z,98730.90
2018-09-26T12:25:03.125Z,98727.75
2018-09-26T12:29:57.836Z,98718.86
2018-09-26T12:34:52.618Z,98714.13
2018-09-26T12:39:47.300Z,98708.92
2018-09-26T12:44:42.030Z,98715.53
2018-09-26T12:49:36.751Z,98715.45
2018-09-26T12:54:31.489Z,98720.25
2018-09-26T12:59:26.209Z,98713.49
2018-09-26T13:04:20.914Z,98703.38
2018-09-26T13:09:15.692Z,98691.42
2018-09-26T13:14:10.484Z,98686.91
2018-09-26T13:19:05.292Z,98672.57
2018-09-26T13:24:00.029Z,98674.81
2018-09-26T13:28:54.738Z,98671.47
2018-09-26T13:33:49.486Z,98668.38
2018-09-26T13:38:44.269Z,98665.19
2018-09-26T13:43:39.112Z,98653.80
2018-09-26T13:48:33.866Z,98651.22
2018-09-26T13:53:28.625Z,98647.49
2018-09-26T13:58:23.412Z,98642.14
2018-09-26T14:03:18.075Z,98641.66
2018-09-26T14:08:12.870Z,98639.03
2018-09-26T14:13:07.678Z,98628.45
2018-09-26T14:18:02.406Z,98634.33
2018-09-26T14:22:57.232Z,98622.44
2018-09-26T14:27:51.943Z,98625.72
2018-09-26T14:32:46.734Z,98619.23
2018-09-26T14:37:41.491Z,98613.31
2018-09-26T14:42:36.230Z,98614.50
2018-09-26T14:47:30.993Z,98609.09
2018-09-26T14:52:25.804Z,98612.90
2018-09-26T14:57:20.546Z,98618.22
2018-09-26T15:02:15.443Z,98611.55
2018-09-26T15:07:10.165Z,98607.64
2018-09-26T15:12:05.012Z,98599.08
2018-09-26T15:16:59.819Z,98594.61
2018-09-26T15:21:54.519Z,98595.88
2018-09-26T15:26:49.400Z,98605.61
2018-09-26T15:31:44.198Z,98603.38
2018-09-26T15:36:39.335Z,98597.66
2018-09-26T15:41:34.204Z,98594.94
2018-09-26T15:46:28.988Z,98588.92
2018-09-26T15:51:23.773Z,98598.78
2018-09-26T15:56:18.586Z,98591.96
2018-09-26T16:01:13.423Z,98592.52
2018-09-26T16:06:08.391Z,98591.20
2018-09-26T16:11:03.478Z,98586.34
2018-09-26T16:15:58.277Z,98601.70
2018-09-26T16:20:53.785Z,98604.13
2018-09-26T16:25:48.542Z,98605.70
2018-09-26T16:30:43.310Z,98605.33
2018-09-26T16:35:38.049Z,98597.12
2018-09-26T16:40:32.873Z,98602.52
2018-09-26T16:45:28.749Z,98601.37
2018-09-26T16:50:23.540Z,98600.77
2018-09-26T16:55:18.297Z,98599.41
2018-09-26T17:00:13.905Z,98603.81
2018-09-26T17:05:08.775Z,98611.59
2018-09-26T17:10:03.912Z,98617.90
2018-09-26T17:14:59.306Z,98615.55
2018-09-26T17:19:54.200Z,98617.56
2018-09-26T17:24:49.124Z,98621.30
2018-09-26T17:29:43.857Z,98621.67
2018-09-26T17:34:38.669Z,98627.80
2018-09-26T17:39:33.432Z,98629.48
2018-09-26T17:44:28.234Z,98627.23
2018-09-26T17:49:23.042Z,98631.25
2018-09-26T17:54:17.762Z,98631.34
2018-09-26T17:59:12.537Z,98636.31
2018-09-26T18:04:07.371Z,98634.45
2018-09-26T18:09:02.213Z,98642.91
2018-09-26T18:13:56.960Z,98637.27
2018-09-26T18:18:51.744Z,98633.25
2018-09-26T18:23:46.453Z,98637.72
2018-09-26T18:28:41.289Z,98641.55
2018-09-26T18:33:36.228Z,98643.14
2018-09-26T18:38:30.918Z,98644.05
2018-09-26T18:43:25.777Z,98651.38
2018-09-26T18:48:21.406Z,98650.44
2018-09-26T18:53:17.123Z,98644.08
2018-09-26T18:58:11.943Z,98645.75
2018-09-26T19:03:06.815Z,98653.38
2018-09-26T19:08:01.626Z,98655.10
2018-09-26T19:12:56.476Z,98658.63
2018-09-26T19:17:51.224Z,98659.11
2018-09-26T19:22:46.021Z,98662.18
2018-09-26T19:27:50.681Z,98655.89
2018-09-26T19:32:54.863Z,98662.99
2018-09-26T19:37:57.387Z,98665.38
2018-09-26T19:42:57.919Z,98672.81
2018-09-26T19:47:57.650Z,98673.69
2018-09-26T19:52:53.294Z,98673.98
2018-09-26T19:57:50.130Z,98671.73
2018-09-26T20:02:46.475Z,98671.44
2018-09-26T20:07:50.945Z,98663.62
2018-09-26T20:15:24.371Z,98670.59
2018-09-26T20:20:20.692Z,98673.85
2018-09-26T20:30:24.513Z,98677.80
2018-09-26T20:35:19.263Z,98688.50
2018-09-26T20:40:14.039Z,98691.22
2018-09-26T20:45:09.197Z,98699.64
2018-09-26T20:50:05.129Z,98693.02
2018-09-26T20:54:59.878Z,98695.98
2018-09-26T20:59:54.635Z,98694.31
2018-09-26T21:04:49.361Z,98691.31
2018-09-26T21:09:44.254Z,98695.16
2018-09-26T21:14:39.014Z,98693.14
2018-09-26T21:19:33.762Z,98683.30
2018-09-26T21:24:29.247Z,98685.27
2018-09-26T21:29:24.036Z,98683.66
2018-09-26T21:34:20.019Z,98682.56
2018-09-26T21:39:14.795Z,98689.74
2018-09-26T21:44:09.621Z,98695.40
2018-09-26T21:49:04.411Z,98691.18
2018-09-26T21:53:59.141Z,98689.23
2018-09-26T21:58:53.919Z,98685.14
2018-09-26T22:03:48.867Z,98685.64
2018-09-26T22:08:43.836Z,98683.39
2018-09-26T22:13:38.752Z,98686.53
2018-09-26T22:18:33.644Z,98681.73
2018-09-26T22:23:28.652Z,98684.90
2018-09-26T22:28:23.447Z,98686.55
2018-09-26T22:33:18.430Z,98687.67
2018-09-26T22:38:13.420Z,98684.23
2018-09-26T22:43:08.426Z,98680.20
2018-09-26T22:48:03.421Z,98678.61
2018-09-26T22:52:58.388Z,98678.95
2018-09-26T22:57:53.418Z,98685.96
2018-09-26T23:02:48.413Z,98681.33
2018-09-26T23:07:43.345Z,98680.84
2018-09-26T23:12:38.285Z,98683.56
2018-09-26T23:17:33.218Z,98680.84
2018-09-26T23:22:28.607Z,98674.52
2018-09-26T23:27:23.558Z,98674.53
2018-09-26T23:32:18.465Z,98672.09
2018-09-26T23:37:13.375Z,98668.58
2018-09-26T23:42:08.643Z,98673.95
2018-09-26T23:47:03.567Z,98663.94
2018-09-26T23:51:58.474Z,98655.31
2018-09-26T23:56:53.387Z,98648.70
